EW0923 Weather Reports


Display with metric or nautical units.
time (UTC)temp
F
wind
direction
speed
MPH
gust
MPH
rain 1hr
in
rain 24hr
in
rain mn
in
humidity
%
barometer
mb
20201130231830 59 193 0.0 5.0 0.42 1.42 1.42 98 992.9
20201130231730 59 225 0.0 5.0 0.42 1.42 1.42 97 994.6
20201130230240 59 155 1.0 5.0 0.42 1.42 1.42 97 992.9
20201130230147 59 222 1.0 5.0 0.42 1.42 1.42 97 994.6
20201130224654 60 283 3.0 9.0 0.41 1.41 1.41 96 992.3
20201130224538 60 262 4.0 9.0 0.41 1.41 1.41 95 994.2
20201130223230 63 140 6.0 25.0 0.36 1.36 1.36 90 992.5
20201130223049 64 267 9.0 24.0 0.36 1.36 1.36 90 994.2
20201130221642 66 252 7.0 12.0 0.00 1.00 1.00 92 991.6
20201130221632 66 248 7.0 13.0 0.00 1.00 1.00 92 993.3
20201130220239 67 226 4.0 14.0 0.00 1.00 1.00 92 991.4
20201130220133 67 172 5.0 14.0 0.00 1.00 1.00 91 993.0
20201130214610 67 131 5.0 18.0 0.00 1.00 1.00 91 991.3
20201130214546 67 190 4.0 17.0 0.00 1.00 1.00 90 992.9
20201130213128 67 155 1.0 17.0 0.00 1.00 1.00 91 991.1
20201130213109 67 120 1.0 17.0 0.00 1.00 1.00 90 992.7
20201130211718 67 225 2.0 12.0 0.00 1.00 1.00 91 991.8
20201130211602 67 120 4.0 13.0 0.00 1.00 1.00 90 993.4
20201130210234 67 120 3.0 15.0 0.00 1.00 1.00 90 993.3
20201130210229 67 206 4.0 13.0 0.00 1.00 1.00 91 991.6
20201130204716 67 204 5.0 20.0 0.00 1.00 1.00 91 991.4
20201130204600 67 212 6.0 20.0 0.00 1.00 1.00 91 993.2
20201130203130 67 200 5.0 15.0 0.00 1.00 1.00 92 991.5
20201130203044 67 188 4.0 15.0 0.00 1.00 1.00 91 993.2
20201130201637 67 100 4.0 10.0 0.00 1.00 1.00 91 992.0
20201130201557 67 115 4.0 10.0 0.00 1.00 1.00 91 993.7
20201130200309 67 163 3.0 14.0 0.00 1.00 1.00 91 992.6
20201130200041 67 0 5.0 13.0 0.00 1.00 1.00 90 994.1
20201130194640 67 108 2.0 14.0 0.00 1.00 1.00 92 992.4
20201130194603 67 278 2.0 17.0 0.00 1.00 1.00 91 994.1
20201130193208 66 348 6.0 16.0 0.00 1.00 1.00 92 994.3
20201130193120 66 176 6.0 17.0 0.00 1.00 1.00 92 992.6
20201130191618 66 232 4.0 12.0 0.00 1.00 1.00 94 992.7
20201130191552 66 158 5.0 13.0 0.00 1.00 1.00 93 994.4
20201130190127 65 194 4.0 11.0 0.01 1.00 1.00 95 993.0
20201130190102 65 217 4.0 13.0 0.01 1.00 1.00 95 994.6
20201130184637 65 129 4.0 13.0 0.01 1.00 1.00 95 995.0
20201130184615 65 164 3.0 13.0 0.01 1.00 1.00 96 993.3
20201130183142 64 225 2.0 17.0 0.01 1.00 1.00 96 994.0
20201130183056 64 214 3.0 17.0 0.01 1.00 1.00 96 995.7
20201130181534 64 243 4.0 13.0 0.01 1.00 1.00 96 994.1
20201130181532 64 232 4.0 13.0 0.01 1.00 1.00 96 995.8
20201130180133 64 202 3.0 17.0 0.00 0.99 0.99 97 994.1
20201130180044 64 215 5.0 17.0 0.00 0.99 0.99 96 996.0
20201130174705 64 139 8.0 14.0 0.00 0.99 0.99 97 996.3
20201130174548 64 200 6.0 14.0 0.00 0.99 0.99 97 994.5
20201130173112 64 115 5.0 13.0 0.02 0.99 0.99 97 996.5
20201130173039 64 115 5.0 13.0 0.02 0.99 0.99 97 994.9
20201130171605 64 115 6.0 15.0 0.06 0.99 0.99 97 996.7
20201130171543 64 163 6.0 15.0 0.06 0.99 0.99 97 995.1
20201130170052 63 224 3.0 13.0 0.07 0.99 0.99 97 997.0
20201130170050 63 135 3.0 13.0 0.07 0.99 0.99 97 995.4
20201130164551 63 126 2.0 16.0 0.07 0.99 0.99 97 995.9
20201130164534 63 115 2.0 17.0 0.07 0.99 0.99 97 997.5
20201130163054 62 99 3.0 14.0 0.05 0.97 0.97 96 997.7
20201130163035 62 185 3.0 13.0 0.04 0.96 0.96 97 996.2
20201130161551 62 143 3.0 10.0 0.02 0.93 0.93 96 998.4
20201130161535 62 124 3.0 9.0 0.02 0.93 0.93 97 996.9
20201130160050 62 215 5.0 15.0 0.05 0.92 0.92 96 998.9
20201130160031 62 118 4.0 15.0 0.05 0.92 0.92 96 997.4
20201130154533 62 133 6.0 15.0 0.10 0.92 0.92 96 999.6
20201130154522 62 114 5.0 14.0 0.10 0.92 0.92 96 998.0
20201130153108 62 204 6.0 19.0 0.20 0.92 0.92 96 999.9
20201130153023 62 155 7.0 19.0 0.21 0.92 0.92 97 998.2
20201130151631 61 103 5.0 15.0 0.32 0.91 0.91 96 1000.1
20201130151523 61 198 5.0 13.0 0.32 0.91 0.91 97 998.5
20201130150219 61 115 4.0 12.0 0.44 0.87 0.87 96 998.9
20201130150133 61 122 4.0 13.0 0.45 0.87 0.87 96 1000.5
20201130144738 60 135 7.0 17.0 0.49 0.82 0.82 97 998.8
20201130144601 60 133 6.0 19.0 0.48 0.81 0.81 96 1000.6
20201130143145 60 110 6.0 17.0 0.44 0.71 0.71 96 1000.8
20201130143135 60 120 6.0 17.0 0.44 0.71 0.71 97 999.2
20201130141751 59 154 4.0 17.0 0.41 0.59 0.59 97 999.5
20201130141533 59 179 4.0 12.0 0.40 0.58 0.58 96 1000.8
20201130140134 58 122 4.0 16.0 0.28 0.41 0.41 96 1000.4
20201130140105 58 113 4.0 13.0 0.28 0.41 0.41 96 1001.9
20201130134750 57 101 3.0 14.0 0.25 0.33 0.33 96 1000.5
20201130134545 57 194 5.0 15.0 0.25 0.33 0.33 96 1002.1
20201130133106 57 103 6.0 13.0 0.19 0.26 0.26 96 1001.3
20201130133034 57 98 7.0 14.0 0.19 0.26 0.26 95 1002.8
20201130131620 57 143 7.0 14.0 0.11 0.18 0.18 96 1002.7
20201130131601 57 105 8.0 15.0 0.11 0.18 0.18 95 1004.3
20201130130137 57 102 3.0 10.0 0.07 0.13 0.13 96 1003.2
20201130130046 57 77 3.0 12.0 0.07 0.13 0.13 95 1004.9
20201130124619 56 122 4.0 11.0 0.04 0.08 0.08 96 1003.7
20201130124548 56 119 5.0 13.0 0.04 0.08 0.08 95 1005.3
20201130123124 56 110 5.0 11.0 0.05 0.07 0.07 96 1004.5
20201130123053 56 122 5.0 13.0 0.05 0.07 0.07 95 1006.2
20201130121652 55 94 4.0 10.0 0.06 0.07 0.07 95 1006.8
20201130121540 55 77 3.0 10.0 0.06 0.07 0.07 95 1005.2
20201130120155 54 101 3.0 7.0 0.05 0.05 0.05 95 1006.0
20201130120111 54 127 3.0 8.0 0.05 0.05 0.05 94 1007.6
20201130114604 54 83 3.0 10.0 0.04 0.04 0.04 94 1008.0
20201130114542 54 71 3.0 9.0 0.04 0.04 0.04 94 1006.3
20201130113042 53 0 3.0 9.0 0.02 0.02 0.02 93 1008.7
20201130113018 53 135 3.0 7.0 0.02 0.02 0.02 94 1007.0
20201130111600 53 115 2.0 8.0 0.01 0.01 0.01 92 1009.0
20201130111521 53 84 2.0 7.0 0.01 0.01 0.01 92 1007.4
20201130110122 53 117 4.0 11.0 0.00 0.00 0.00 90 1009.7
20201130110008 53 63 3.0 10.0 0.00 0.00 0.00 91 1008.1
20201130104704 52 120 0.0 6.0 0.00 0.00 0.00 91 1008.4
20201130104618 52 105 2.0 6.0 0.00 0.00 0.00 90 1010.0
20201130103221 52 131 3.0 8.0 0.00 0.00 0.00 90 1008.7
20201130103117 52 167 2.0 8.0 0.00 0.00 0.00 90 1010.2
20201130101629 51 86 4.0 9.0 0.00 0.00 0.00 90 1009.0
20201130101612 51 85 3.0 10.0 0.00 0.00 0.00 90 1010.6
20201130100151 51 91 2.0 7.0 0.00 0.00 0.00 89 1009.3
20201130100143 51 135 2.0 7.0 0.00 0.00 0.00 89 1010.9
20201130094712 51 98 4.0 8.0 0.00 0.00 0.00 89 1009.7
20201130094608 51 82 3.0 9.0 0.00 0.00 0.00 88 1011.3
20201130093214 51 84 1.0 7.0 0.00 0.00 0.00 89 1010.1
20201130093121 51 78 2.0 8.0 0.00 0.00 0.00 89 1011.6
20201130091638 50 77 3.0 8.0 0.00 0.00 0.00 89 1010.4
20201130091550 50 122 4.0 9.0 0.00 0.00 0.00 88 1012.2
20201130090155 50 117 1.0 5.0 0.00 0.00 0.00 88 1010.7
20201130090034 50 96 2.0 5.0 0.00 0.00 0.00 88 1012.4
20201130084633 50 114 1.0 7.0 0.00 0.00 0.00 88 1011.0
20201130084610 50 115 2.0 8.0 0.00 0.00 0.00 88 1012.7
20201130083111 49 0 1.0 8.0 0.00 0.00 0.00 88 1013.1
20201130081628 49 70 1.0 5.0 0.00 0.00 0.00 89 1011.8
20201130081606 49 0 2.0 6.0 0.00 0.00 0.00 88 1013.3
20201130080220 48 0 1.0 4.0 0.00 0.00 0.00 89 1013.8
20201130080055 48 123 1.0 4.0 0.00 0.00 0.00 89 1012.3
20201130074555 48 105 0.0 4.0 0.00 0.00 0.00 88 1014.2
20201130074529 48 96 0.0 4.0 0.00 0.00 0.00 89 1012.6
20201130073139 48 134 0.0 5.0 0.00 0.00 0.00 88 1014.5
20201130073116 48 134 0.0 4.0 0.00 0.00 0.00 88 1013.0
20201130071541 47 143 1.0 5.0 0.00 0.00 0.00 88 1014.9
20201130071529 47 143 0.0 4.0 0.00 0.00 0.00 89 1013.3
20201130070041 47 116 0.0 4.0 0.00 0.00 0.00 88 1015.2
20201130070039 47 121 0.0 4.0 0.00 0.00 0.00 89 1013.6
20201130064541 47 109 0.0 3.0 0.00 0.00 0.00 89 1013.9
20201130064538 47 109 0.0 3.0 0.00 0.00 0.00 88 1015.4
20201130063144 47 120 0.0 4.0 0.00 0.00 0.00 88 1015.6
20201130063025 47 121 0.0 4.0 0.00 0.00 0.00 89 1014.1
20201130061544 46 137 0.0 2.0 0.00 0.00 0.00 87 1015.8
20201130061520 46 107 0.0 2.0 0.00 0.00 0.00 88 1014.2
20201130060055 46 131 0.0 3.0 0.00 0.00 0.00 86 1016.2
20201130060021 46 123 0.0 2.0 0.00 0.00 0.00 87 1014.5
20201130054553 46 0 0.0 3.0 0.00 0.00 0.00 86 1016.6
20201130054532 46 111 0.0 3.0 0.00 0.00 0.00 86 1015.0
20201130053058 46 0 0.0 2.0 0.00 0.00 0.00 85 1016.8
20201130053019 46 119 0.0 2.0 0.00 0.00 0.00 86 1015.1
20201130051613 46 122 0.0 3.0 0.00 0.00 0.00 84 1017.0
20201130051521 46 168 0.0 3.0 0.00 0.00 0.00 85 1015.3
20201130050041 46 146 0.0 5.0 0.00 0.00 0.00 84 1017.2
20201130050017 46 115 0.0 4.0 0.00 0.00 0.00 84 1015.4
20201130044702 46 108 0.0 3.0 0.00 0.00 0.00 83 1015.6
20201130044550 46 115 0.0 3.0 0.00 0.00 0.00 83 1017.4
20201130043154 45 121 0.0 5.0 0.00 0.00 0.00 82 1015.9
20201130043107 45 0 1.0 6.0 0.00 0.00 0.00 82 1017.7
20201130041618 45 101 0.0 2.0 0.00 0.00 0.00 82 1016.3
20201130041543 45 84 0.0 2.0 0.00 0.00 0.00 81 1017.9
20201130040148 45 124 0.0 3.0 0.00 0.00 0.00 81 1016.5
20201130040052 45 123 0.0 3.0 0.00 0.00 0.00 80 1018.2
20201130034658 45 99 0.0 2.0 0.00 0.00 0.00 79 1016.7
20201130034550 45 0 0.0 2.0 0.00 0.00 0.00 78 1018.5
20201130033207 45 108 0.0 1.0 0.00 0.00 0.00 77 1016.9
20201130033106 45 0 0.0 1.0 0.00 0.00 0.00 77 1018.6
20201130031617 45 123 0.0 1.0 0.00 0.00 0.00 76 1017.0
20201130031538 45 122 0.0 1.0 0.00 0.00 0.00 75 1018.8
20201130030107 45 109 0.0 2.0 0.00 0.00 0.00 75 1017.0
20201130030059 45 108 0.0 1.0 0.00 0.00 0.00 74 1018.8
20201130024621 45 114 0.0 2.0 0.00 0.00 0.00 74 1017.1
20201130024549 45 0 0.0 2.0 0.00 0.00 0.00 73 1018.8
20201130023207 45 0 0.0 2.0 0.00 0.00 0.00 71 1019.0
20201130023103 45 184 0.0 2.0 0.00 0.00 0.00 72 1017.3
20201130021701 44 126 0.0 1.0 0.00 0.00 0.00 71 1017.2
20201130021616 44 0 0.0 1.0 0.00 0.00 0.00 70 1018.9
20201130020058 43 0 0.0 1.0 0.00 0.00 0.00 68 1019.2
20201130020052 43 123 0.0 1.0 0.00 0.00 0.00 69 1017.3
20201130014559 43 0 0.0 1.0 0.00 0.00 0.00 67 1019.1
20201130014554 43 117 0.0 1.0 0.00 0.00 0.00 67 1017.3
20201130013112 43 131 0.0 1.0 0.00 0.00 0.00 66 1017.6
20201130013045 43 0 0.0 1.0 0.00 0.00 0.00 65 1019.4
20201130011650 44 143 0.0 0.0 0.00 0.00 0.00 64 1017.8
20201130011551 44 0 0.0 0.0 0.00 0.00 0.00 63 1019.7
20201130010144 44 143 0.0 0.0 0.00 0.00 0.00 62 1017.9
20201130010109 44 0 0.0 0.0 0.00 0.00 0.00 62 1019.7
20201130004633 45 136 0.0 0.0 0.00 0.00 0.00 61 1017.8
20201130004613 45 0 0.0 0.0 0.00 0.00 0.00 60 1019.6
20201130003206 45 136 0.0 1.0 0.00 0.00 0.00 61 1017.8
20201130003041 45 0 0.0 1.0 0.00 0.00 0.00 61 1019.6
20201130001601 45 136 0.0 1.0 0.00 0.00 0.00 61 1018.0
20201130001533 45 0 0.0 1.0 0.00 0.00 0.00 60 1019.7
20201130000151 46 132 0.0 0.0 0.00 0.00 0.00 60 1018.2
20201130000113 46 0 0.0 0.0 0.00 0.00 0.00 59 1020.0
20201129234555 47 109 0.0 1.0 0.00 0.00 0.00 58 1018.1
20201129234535 47 0 0.0 1.0 0.00 0.00 0.00 57 1019.9
20201129233212 47 0 0.0 1.0 0.00 0.00 0.00 57 1020.0
20201129233104 47 109 0.0 1.0 0.00 0.00 0.00 58 1018.2